Time;durP1;ratioP1;P1;durP2;ratioP2;P2;SDS_P1;SDS_P2;PMS_P1;PMS_P2;Temp;Humidity;BMP_temperature;BMP_pressure;BME280_temperature;BME280_humidity;BME280_pressure;Samples;Min_cycle;Max_cycle;Signal;HPM_P1;HPM_P2
2024/01/18 00:01:39;;;;;;;3.95;1.83;;;;;;;;;;5030517;28;20049;-72
2024/01/18 00:04:05;;;;;;;3.95;1.13;;;;;;;;;;5013931;28;20049;-72
2024/01/18 00:06:34;;;;;;;2.38;1.00;;;;;;;;;;5031208;28;20041;-69
2024/01/18 00:09:01;;;;;;;3.58;1.52;;;;;;;;;;5030515;28;20079;-69
2024/01/18 00:11:27;;;;;;;8.90;3.30;;;;;;;;;;5030452;28;20045;-69
2024/01/18 00:13:54;;;;;;;5.75;3.13;;;;;;;;;;5030633;28;20128;-69
2024/01/18 00:16:20;;;;;;;4.35;0.70;;;;;;;;;;5030700;28;20130;-69
2024/01/18 00:18:45;;;;;;;3.25;0.52;;;18.50;1.00;;;;;;5013804;28;20053;-69
2024/01/18 00:21:11;;;;;;;1.83;0.60;;;;;;;;;;5031234;28;20042;-69
2024/01/18 00:23:37;;;;;;;1.83;0.50;;;;;;;;;;5030263;28;20048;-70
2024/01/18 00:26:03;;;;;;;7.22;1.63;;;;;;;;;;5029829;28;20038;-70
2024/01/18 00:28:29;;;;;;;4.80;1.10;;;;;;;;;;5030170;28;20033;-69
2024/01/18 00:30:55;;;;;;;8.13;1.00;;;;;;;;;;5013849;28;20055;-69
2024/01/18 00:33:21;;;;;;;1.17;0.57;;;;;;;;;;5030557;28;20049;-69
2024/01/18 00:35:48;;;;;;;1.00;0.50;;;;;;;;;;5029632;28;20044;-69
2024/01/18 00:38:14;;;;;;;6.55;2.80;;;;;;;;;;5029822;28;20137;-70
2024/01/18 00:40:41;;;;;;;21.15;8.38;;;;;;;;;;5030357;28;20063;-70
2024/01/18 00:43:08;;;;;;;7.00;2.55;;;;;;;;;;5030119;28;20049;-69
2024/01/18 00:45:34;;;;;;;1.60;0.77;;;;;;;;;;5029540;28;20042;-69
2024/01/18 00:47:59;;;;;;;2.75;1.00;;;18.30;1.00;;;;;;5029920;28;20092;-69
2024/01/18 00:50:25;;;;;;;3.03;1.65;;;18.10;1.00;;;;;;5030300;28;20037;-69
2024/01/18 00:52:51;;;;;;;2.28;1.85;;;;;;;;;;5029754;28;20048;-69
2024/01/18 00:55:17;;;;;;;7.10;2.20;;;;;;;;;;5029530;28;20124;-70
2024/01/18 00:57:43;;;;;;;4.47;3.53;;;;;;;;;;5030245;28;20044;-69
2024/01/18 01:00:09;;;;;;;2.85;2.22;;;;;;;;;;5013575;28;20052;-69
2024/01/18 01:02:35;;;;;;;6.45;3.60;;;;;;;;;;5029816;28;20556;-70
2024/01/18 01:05:01;;;;;;;3.08;2.35;;;;;;;;;;5029435;28;20037;-68
2024/01/18 01:07:27;;;;;;;3.67;2.45;;;;;;;;;;5029894;28;20038;-69
2024/01/18 01:09:52;;;;;;;4.30;3.40;;;18.30;2.90;;;;;;5029873;28;20048;-69
2024/01/18 01:12:18;;;;;;;3.33;2.22;;;17.90;1.20;;;;;;5030062;28;20030;-69
2024/01/18 01:14:44;;;;;;;2.55;1.73;;;;;;;;;;5013483;28;20103;-69
2024/01/18 01:17:10;;;;;;;2.20;1.35;;;;;;;;;;5029110;28;20045;-69
2024/01/18 01:19:36;;;;;;;3.47;1.70;;;;;;;;;;5013447;28;20041;-69
2024/01/18 01:22:02;;;;;;;7.18;2.88;;;;;;;;;;5030009;28;20041;-70
2024/01/18 01:24:28;;;;;;;5.25;2.78;;;;;;;;;;5013336;28;20120;-69
2024/01/18 01:26:54;;;;;;;3.40;1.58;;;;;;;;;;5029097;28;20127;-69
2024/01/18 01:29:20;;;;;;;2.25;1.60;;;;;;;;;;5030595;28;20037;-70
2024/01/18 01:31:46;;;;;;;2.15;1.60;;;;;;;;;;5013582;28;20087;-69
2024/01/18 01:34:12;;;;;;;1.67;0.90;;;;;;;;;;5034049;28;20041;-69
2024/01/18 01:36:38;;;;;;;1.85;1.20;;;;;;;;;;5016890;28;20508;-69
2024/01/18 01:39:04;;;;;;;1.77;0.70;;;;;;;;;;5033462;28;20041;-69
2024/01/18 01:41:30;;;;;;;1.42;0.80;;;18.10;5.30;;;;;;5033413;28;20409;-69
2024/01/18 01:44:02;;;;;;;6.68;1.33;;;;;;;;;;5034410;28;20037;-69
2024/01/18 01:46:29;;;;;;;3.50;1.52;;;;;;;;;;5033816;28;20123;-72
2024/01/18 01:48:58;;;;;;;13.40;2.28;;;;;;;;;;5032916;28;20053;-69
2024/01/18 01:51:24;;;;;;;1.80;1.17;;;;;;;;;;5033014;28;20504;-69
2024/01/18 01:53:50;;;;;;;4.45;1.88;;;;;;;;;;5033013;28;20041;-69
2024/01/18 01:56:16;;;;;;;1.75;1.20;;;;;;;;;;5032256;28;20041;-69
2024/01/18 01:58:42;;;;;;;4.30;1.30;;;;;;;;;;5033894;28;20059;-68
2024/01/18 02:01:08;;;;;;;1.48;1.00;;;;;;;;;;5032781;28;20045;-70
2024/01/18 02:03:34;;;;;;;1.33;0.70;;;;;;;;;;5032927;28;20494;-70
2024/01/18 02:06:01;;;;;;;1.25;0.98;;;;;;;;;;5032411;28;20087;-69
2024/01/18 02:08:28;;;;;;;1.45;0.88;;;;;;;;;;5032712;28;20125;-69
2024/01/18 02:10:53;;;;;;;3.33;0.60;;;17.50;9.30;;;;;;5016300;28;20044;-72
2024/01/18 02:13:20;;;;;;;6.35;1.92;;;;;;;;;;5016313;28;20041;-72
2024/01/18 02:15:46;;;;;;;2.17;0.50;;;;;;;;;;5032212;28;20049;-73
2024/01/18 02:18:12;;;;;;;7.88;1.80;;;;;;;;;;5015911;28;20045;-72
2024/01/18 02:20:38;;;;;;;0.73;0.40;;;;;;;;;;5032847;28;20067;-72
2024/01/18 02:23:06;;;;;;;2.92;0.68;;;17.90;8.90;;;;;;5032448;28;20045;-71
2024/01/18 02:25:32;;;;;;;1.83;0.85;;;;;;;;;;5031848;28;20504;-70
2024/01/18 02:27:58;;;;;;;5.38;0.85;;;;;;;;;;5032175;28;20069;-70
2024/01/18 02:30:24;;;;;;;2.97;0.75;;;17.90;10.10;;;;;;5032541;28;20048;-70
2024/01/18 02:32:50;;;;;;;3.55;0.57;;;17.80;10.20;;;;;;5032325;28;20045;-70
2024/01/18 02:35:17;;;;;;;2.42;1.17;;;17.70;10.20;;;;;;5031630;28;20563;-69
2024/01/18 02:37:43;;;;;;;3.25;0.50;;;;;;;;;;5032005;28;20128;-69
2024/01/18 02:40:09;;;;;;;0.60;0.32;;;17.60;9.80;;;;;;5032147;28;20046;-70
2024/01/18 02:42:35;;;;;;;2.35;0.52;;;;;;;;;;5031899;28;20051;-69
2024/01/18 02:45:04;;;;;;;2.10;0.30;;;17.70;8.50;;;;;;5031570;28;20092;-69
2024/01/18 02:47:31;;;;;;;1.23;0.50;;;17.60;5.00;;;;;;5031927;28;20037;-70
2024/01/18 02:49:57;;;;;;;2.50;0.30;;;;;;;;;;5015473;28;20087;-70
2024/01/18 02:52:22;;;;;;;0.98;0.30;;;17.50;6.00;;;;;;5015484;28;20042;-69
2024/01/18 02:54:48;;;;;;;3.03;0.40;;;;;;;;;;5032074;28;20064;-68
2024/01/18 02:57:15;;;;;;;1.90;0.50;;;;;;;;;;5031532;28;20045;-70
2024/01/18 02:59:41;;;;;;;1.98;0.60;;;;;;;;;;5033242;28;20124;-70
2024/01/18 03:02:07;;;;;;;5.47;0.50;;;;;;;;;;5031691;28;20056;-70
2024/01/18 03:04:33;;;;;;;2.35;0.60;;;;;;;;;;5031746;28;20041;-70
2024/01/18 03:06:59;;;;;;;1.33;0.75;;;;;;;;;;5031242;28;20045;-70
2024/01/18 03:09:26;;;;;;;2.30;0.82;;;;;;;;;;5031769;28;20086;-70
2024/01/18 03:11:52;;;;;;;1.25;0.80;;;;;;;;;;5015266;28;20504;-69
2024/01/18 03:14:20;;;;;;;3.58;0.60;;;;;;;;;;5031534;28;20083;-68
2024/01/18 03:16:45;;;;;;;2.58;1.10;;;17.80;3.50;;;;;;5014305;28;20144;-69
2024/01/18 03:19:12;;;;;;;1.83;0.70;;;;;;;;;;5014932;28;20056;-69
2024/01/18 03:21:38;;;;;;;4.78;0.52;;;;;;;;;;5031499;28;20529;-69
2024/01/18 03:24:04;;;;;;;5.30;0.82;;;;;;;;;;5031402;28;20044;-69
2024/01/18 03:26:30;;;;;;;6.70;0.70;;;;;;;;;;5030536;28;20044;-70
2024/01/18 03:28:55;;;;;;;2.22;0.60;;;17.60;4.50;;;;;;5030940;28;20429;-69
2024/01/18 03:31:21;;;;;;;3.10;0.70;;;;;;;;;;5031303;28;20046;-70
2024/01/18 03:33:47;;;;;;;2.63;0.55;;;;;;;;;;5031137;28;20605;-69
2024/01/18 03:36:13;;;;;;;1.45;0.70;;;;;;;;;;5014279;28;20041;-70
2024/01/18 03:38:39;;;;;;;5.85;0.93;;;;;;;;;;5031049;28;20049;-69
2024/01/18 03:41:05;;;;;;;2.63;0.60;;;18.40;14.00;;;;;;5031039;28;20064;-69
2024/01/18 03:43:30;;;;;;;3.97;0.60;;;18.30;17.40;;;;;;5030890;28;20047;-69
2024/01/18 03:45:56;;;;;;;0.75;0.32;;;;;;;;;;5030336;28;20041;-69
2024/01/18 03:48:22;;;;;;;1.00;0.60;;;;;;;;;;5030940;28;20048;-69
2024/01/18 03:50:48;;;;;;;2.45;0.52;;;;;;;;;;5014531;28;20044;-71
2024/01/18 03:53:14;;;;;;;3.20;0.40;;;;;;;;;;5030735;28;20049;-70
2024/01/18 03:55:41;;;;;;;0.77;0.30;;;;;;;;;;5029524;28;20532;-71
2024/01/18 03:58:07;;;;;;;1.10;0.40;;;;;;;;;;5030608;28;20048;-71
2024/01/18 04:00:33;;;;;;;1.17;0.82;;;;;;;;;;5030915;28;20175;-70
2024/01/18 04:02:59;;;;;;;3.47;0.50;;;;;;;;;;5030568;28;20124;-70
2024/01/18 04:05:25;;;;;;;1.58;0.90;;;;;;;;;;5030019;28;20526;-70
2024/01/18 04:07:51;;;;;;;2.42;0.50;;;;;;;;;;5029959;28;20048;-70
2024/01/18 04:10:17;;;;;;;2.38;0.63;;;;;;;;;;5030361;28;20408;-70
2024/01/18 04:12:44;;;;;;;5.63;0.57;;;;;;;;;;5030462;28;20519;-70
2024/01/18 04:15:10;;;;;;;5.80;1.15;;;18.60;1.00;;;;;;5029931;28;20037;-69
2024/01/18 04:17:37;;;;;;;3.50;1.35;;;;;;;;;;5031758;28;20037;-70
2024/01/18 04:20:05;;;;;;;3.22;1.42;;;;;;;;;;5013984;28;20038;-70
2024/01/18 04:22:31;;;;;;;2.63;0.47;;;;;;;;;;5030296;28;20046;-70
2024/01/18 04:24:57;;;;;;;2.25;0.45;;;;;;;;;;5031257;28;20080;-69
2024/01/18 04:27:23;;;;;;;2.97;0.52;;;;;;;;;;5030246;28;20069;-69
2024/01/18 04:29:49;;;;;;;0.65;0.30;;;;;;;;;;5030493;28;20055;-70
2024/01/18 04:32:15;;;;;;;2.72;0.40;;;18.20;1.00;;;;;;5030394;28;20045;-70
2024/01/18 04:34:42;;;;;;;4.20;1.92;;;;;;;;;;5030328;28;20095;-69
2024/01/18 04:37:09;;;;;;;1.08;0.52;;;;;;;;;;5029548;28;20049;-70
2024/01/18 04:39:35;;;;;;;1.08;0.35;;;;;;;;;;5030238;28;20065;-70
2024/01/18 04:42:01;;;;;;;6.38;0.90;;;;;;;;;;5031752;28;20072;-70
2024/01/18 04:44:27;;;;;;;6.22;0.52;;;;;;;;;;5030803;28;20076;-69
2024/01/18 04:46:53;;;;;;;2.22;0.47;;;;;;;;;;5030356;28;20038;-70
2024/01/18 04:49:19;;;;;;;2.25;0.50;;;;;;;;;;5030542;28;20125;-70
2024/01/18 04:51:44;;;;;;;3.17;0.60;;;18.50;1.00;;;;;;5031721;28;20087;-69
2024/01/18 04:54:10;;;;;;;1.92;0.60;;;18.20;1.00;;;;;;5030181;28;20522;-70
2024/01/18 04:56:37;;;;;;;1.77;0.60;;;;;;;;;;5029838;28;20037;-69
2024/01/18 04:59:03;;;;;;;1.13;0.70;;;;;;;;;;5029986;28;20045;-70
2024/01/18 05:01:30;;;;;;;2.47;0.93;;;;;;;;;;5013607;28;20049;-67
2024/01/18 05:03:56;;;;;;;6.13;1.10;;;;;;;;;;5030078;28;20521;-70
2024/01/18 05:06:22;;;;;;;2.05;0.93;;;;;;;;;;5029346;28;20034;-70
2024/01/18 05:08:48;;;;;;;2.35;0.60;;;;;;;;;;5034394;28;20040;-70
2024/01/18 05:11:14;;;;;;;2.53;1.02;;;;;;;;;;5034014;28;20041;-70
2024/01/18 05:13:40;;;;;;;4.32;1.27;;;;;;;;;;5033781;28;20053;-71
2024/01/18 05:16:07;;;;;;;2.88;1.05;;;;;;;;;;5033161;28;20048;-71
2024/01/18 05:18:33;;;;;;;4.93;1.95;;;;;;;;;;5017093;28;20037;-69
2024/01/18 05:20:59;;;;;;;4.45;1.10;;;;;;;;;;5033727;28;20132;-70
2024/01/18 05:23:25;;;;;;;4.68;1.02;;;;;;;;;;5033511;28;20037;-70
2024/01/18 05:25:51;;;;;;;3.50;0.77;;;;;;;;;;5032988;28;20043;-71
2024/01/18 05:28:17;;;;;;;3.03;0.90;;;;;;;;;;5033619;28;20469;-70
2024/01/18 05:30:43;;;;;;;5.38;1.00;;;;;;;;;;5033444;28;20098;-69
2024/01/18 05:33:09;;;;;;;1.92;0.47;;;;;;;;;;5033637;28;20050;-69
2024/01/18 05:35:35;;;;;;;5.13;0.98;;;;;;;;;;5032782;28;20248;-70
2024/01/18 05:38:02;;;;;;;2.78;0.88;;;;;;;;;;5033262;28;20053;-70
2024/01/18 05:40:27;;;;;;;0.75;0.50;;;;;;;;;;5033296;28;20091;-70
2024/01/18 05:42:53;;;;;;;2.33;0.85;;;;;;;;;;5033134;28;20041;-69
2024/01/18 05:45:19;;;;;;;2.22;0.60;;;;;;;;;;5032913;28;20061;-71
2024/01/18 05:47:45;;;;;;;1.80;1.00;;;;;;;;;;5032971;28;20052;-69
2024/01/18 05:50:12;;;;;;;2.45;0.50;;;;;;;;;;5032925;28;20055;-70
2024/01/18 05:52:38;;;;;;;5.07;0.90;;;;;;;;;;5032995;28;20072;-69
2024/01/18 05:55:04;;;;;;;1.13;0.63;;;;;;;;;;5032703;28;20037;-70
2024/01/18 05:57:30;;;;;;;2.53;0.90;;;;;;;;;;5033153;28;20041;-70
2024/01/18 05:59:56;;;;;;;3.22;1.67;;;;;;;;;;5033061;28;20520;-71
2024/01/18 06:02:22;;;;;;;4.68;1.42;;;;;;;;;;5032845;28;20048;-69
2024/01/18 06:04:48;;;;;;;5.32;1.23;;;18.20;1.00;;;;;;5032709;28;20042;-69
2024/01/18 06:07:13;;;;;;;3.28;0.85;;;18.10;1.00;;;;;;5032445;28;20079;-70
2024/01/18 06:09:39;;;;;;;5.90;1.25;;;17.50;1.00;;;;;;5032856;28;20033;-70
2024/01/18 06:12:06;;;;;;;4.78;0.80;;;;;;;;;;5032506;28;20049;-70
2024/01/18 06:14:32;;;;;;;4.13;0.88;;;;;;;;;;5032598;28;20052;-70
2024/01/18 06:16:58;;;;;;;3.83;0.68;;;17.80;1.00;;;;;;5032557;28;20041;-69
2024/01/18 06:19:23;;;;;;;2.28;0.68;;;17.80;1.00;;;;;;5031844;28;20052;-70
2024/01/18 06:21:49;;;;;;;1.42;0.77;;;;;;;;;;5032479;28;20043;-70
2024/01/18 06:24:15;;;;;;;5.22;0.70;;;;;;;;;;5032404;28;20045;-70
2024/01/18 06:26:41;;;;;;;2.60;0.70;;;;;;;;;;5031806;28;20039;-70
2024/01/18 06:29:08;;;;;;;2.10;0.73;;;;;;;;;;5032220;28;20069;-70
2024/01/18 06:31:34;;;;;;;3.35;0.80;;;;;;;;;;5015692;28;20040;-70
2024/01/18 06:34:00;;;;;;;2.28;1.08;;;;;;;;;;5032155;28;20045;-70
2024/01/18 06:36:26;;;;;;;1.65;0.82;;;;;;;;;;5031681;28;20041;-70
2024/01/18 06:38:51;;;;;;;1.40;1.10;;;17.50;2.30;;;;;;5032057;28;20052;-70
2024/01/18 06:41:19;;;;;;;1.17;0.80;;;;;;;;;;5032329;28;20037;-69
2024/01/18 06:43:46;;;;;;;4.40;1.33;;;;;;;;;;5015500;28;20045;-69
2024/01/18 06:46:18;;;;;;;1.60;0.90;;;;;;;;;;5015179;28;20046;-70
2024/01/18 06:48:52;;;;;;;2.07;0.80;;;;;;;;;;5015364;28;20516;-70
2024/01/18 06:51:18;;;;;;;4.93;1.27;;;;;;;;;;5031990;28;20473;-70
2024/01/18 06:53:44;;;;;;;4.75;0.80;;;;;;;;;;5031912;28;20047;-70
2024/01/18 06:56:12;;;;;;;4.32;1.30;;;;;;;;;;5031548;28;20143;-70
2024/01/18 06:58:38;;;;;;;3.97;1.00;;;;;;;;;;5031663;28;20045;-70
2024/01/18 07:01:04;;;;;;;5.25;1.38;;;;;;;;;;5015222;28;20053;-70
2024/01/18 07:03:35;;;;;;;3.95;1.15;;;;;;;;;;5031701;28;20046;-70
2024/01/18 07:06:01;;;;;;;4.03;2.03;;;;;;;;;;5031238;28;20041;-70
2024/01/18 07:08:27;;;;;;;5.50;1.50;;;;;;;;;;5031610;28;20033;-69
2024/01/18 07:10:53;;;;;;;7.82;1.27;;;;;;;;;;5015227;28;20048;-70
2024/01/18 07:13:19;;;;;;;2.20;1.10;;;;;;;;;;5030420;28;20073;-70
2024/01/18 07:15:45;;;;;;;3.40;1.40;;;;;;;;;;5014515;28;20049;-69
2024/01/18 07:18:11;;;;;;;2.08;0.90;;;;;;;;;;5026092;28;20042;-69
2024/01/18 07:20:37;;;;;;;4.60;1.10;;;;;;;;;;5027295;28;20047;-69
2024/01/18 07:23:03;;;;;;;8.27;1.20;;;;;;;;;;5027012;28;20124;-70
2024/01/18 07:25:29;;;;;;;4.97;1.42;;;;;;;;;;5023496;28;20052;-69
2024/01/18 07:27:56;;;;;;;1.55;0.82;;;;;;;;;;5027101;28;20196;-69
2024/01/18 07:30:22;;;;;;;4.70;1.20;;;;;;;;;;5026082;28;20464;-69
2024/01/18 07:32:49;;;;;;;4.18;0.95;;;;;;;;;;5026519;28;20037;-70
2024/01/18 07:35:15;;;;;;;9.13;1.90;;;;;;;;;;5026415;28;20087;-70
2024/01/18 07:37:42;;;;;;;5.40;1.30;;;;;;;;;;5027255;28;20033;-68
2024/01/18 07:40:08;;;;;;;4.45;1.52;;;;;;;;;;5027012;28;20033;-69
2024/01/18 07:42:34;;;;;;;4.03;1.13;;;;;;;;;;5027075;28;20037;-70
2024/01/18 07:45:00;;;;;;;8.50;1.30;;;;;;;;;;5026229;28;20033;-70
2024/01/18 07:47:26;;;;;;;6.32;1.52;;;;;;;;;;5006172;28;20096;-70
2024/01/18 07:49:52;;;;;;;4.43;1.65;;;;;;;;;;5030251;28;20386;-70
2024/01/18 07:52:18;;;;;;;4.35;1.92;;;;;;;;;;5012088;28;20532;-68
2024/01/18 07:54:45;;;;;;;3.75;2.10;;;;;;;;;;5029922;28;20601;-71
2024/01/18 07:57:12;;;;;;;3.80;2.13;;;;;;;;;;5012329;28;20489;-71
2024/01/18 07:59:38;;;;;;;7.72;2.42;;;;;;;;;;5013081;28;20555;-70
2024/01/18 08:02:04;;;;;;;5.45;1.88;;;;;;;;;;5013519;28;20045;-68
2024/01/18 08:04:31;;;;;;;3.22;2.03;;;;;;;;;;5013531;28;20460;-70
2024/01/18 08:06:57;;;;;;;7.70;1.73;;;;;;;;;;5030580;28;20393;-69
2024/01/18 08:09:23;;;;;;;3.75;1.85;;;;;;;;;;5030134;28;20048;-70
2024/01/18 08:11:49;;;;;;;3.85;1.35;;;;;;;;;;5031174;28;20040;-70
2024/01/18 08:14:15;;;;;;;5.72;1.60;;;;;;;;;;5013662;28;20098;-70
2024/01/18 08:16:41;;;;;;;3.38;1.20;;;;;;;;;;5029704;28;20132;-70
2024/01/18 08:19:07;;;;;;;3.22;1.33;;;;;;;;;;5013697;28;20488;-70
2024/01/18 08:21:33;;;;;;;6.07;1.83;;;;;;;;;;5031440;28;20076;-70
2024/01/18 08:23:59;;;;;;;5.80;1.25;;;;;;;;;;5013449;28;20040;-70
2024/01/18 08:26:25;;;;;;;6.38;1.50;;;;;;;;;;5029710;28;20045;-70
2024/01/18 08:28:51;;;;;;;5.57;1.50;;;;;;;;;;5029856;28;20112;-71
2024/01/18 08:31:17;;;;;;;2.25;1.27;;;;;;;;;;5029987;28;20061;-71
2024/01/18 08:33:43;;;;;;;3.92;1.45;;;;;;;;;;5029747;28;20049;-70
2024/01/18 08:36:09;;;;;;;7.22;1.98;;;;;;;;;;5029445;28;20041;-69
2024/01/18 08:38:35;;;;;;;3.75;1.10;;;;;;;;;;5029868;28;20041;-70
2024/01/18 08:41:01;;;;;;;5.03;1.30;;;;;;;;;;5029908;28;20124;-70
2024/01/18 08:43:31;;;;;;;5.22;1.52;;;;;;;;;;5017696;28;20667;-70
2024/01/18 08:45:57;;;;;;;3.92;1.38;;;;;;;;;;5033549;28;20041;-70
2024/01/18 08:48:23;;;;;;;3.35;1.25;;;;;;;;;;5033573;28;20033;-69
2024/01/18 08:50:49;;;;;;;5.78;1.83;;;;;;;;;;5033841;28;20040;-70
2024/01/18 08:53:15;;;;;;;5.72;1.88;;;;;;;;;;5034518;28;20499;-70
2024/01/18 08:55:41;;;;;;;7.15;1.40;;;;;;;;;;5033473;28;20041;-70
2024/01/18 08:58:08;;;;;;;3.83;1.23;;;;;;;;;;5033983;28;20052;-70
2024/01/18 09:00:34;;;;;;;3.30;1.10;;;;;;;;;;5033913;28;20048;-70
2024/01/18 09:03:00;;;;;;;8.07;1.60;;;;;;;;;;5033688;28;20133;-70
2024/01/18 09:05:27;;;;;;;9.68;3.78;;;;;;;;;;5017144;28;20049;-71
2024/01/18 09:07:53;;;;;;;7.47;2.60;;;;;;;;;;5033753;28;20064;-72
2024/01/18 09:10:20;;;;;;;7.03;1.60;;;;;;;;;;5017053;28;20091;-70
2024/01/18 09:12:46;;;;;;;3.50;1.27;;;;;;;;;;5033437;28;20038;-71
2024/01/18 09:15:12;;;;;;;7.82;1.98;;;;;;;;;;5028583;28;20053;-70
2024/01/18 09:17:41;;;;;;;4.53;1.10;;;;;;;;;;5028782;28;20037;-69
2024/01/18 09:20:09;;;;;;;5.07;1.10;;;;;;;;;;5009984;28;20420;-71
2024/01/18 09:22:35;;;;;;;6.22;1.00;;;;;;;;;;5038035;28;20049;-69
2024/01/18 09:25:01;;;;;;;4.72;2.28;;;;;;;;;;5027617;28;20091;-71
2024/01/18 09:27:27;;;;;;;6.07;1.02;;;;;;;;;;5029272;28;20122;-69
2024/01/18 09:29:53;;;;;;;7.70;1.10;;;;;;;;;;5028810;28;20037;-70
2024/01/18 09:32:20;;;;;;;2.80;1.10;;;;;;;;;;5037990;28;20413;-71
2024/01/18 09:34:46;;;;;;;4.95;1.90;;;;;;;;;;5051486;28;20068;-71
2024/01/18 09:37:12;;;;;;;7.18;2.08;;;;;;;;;;5031115;28;20045;-70
2024/01/18 09:39:39;;;;;;;6.75;2.08;;;;;;;;;;5033503;28;20068;-71
2024/01/18 09:42:07;;;;;;;4.13;1.35;;;;;;;;;;5032979;28;20037;-71
2024/01/18 09:44:39;;;;;;;5.03;1.88;;;;;;;;;;5017013;28;20076;-70
2024/01/18 09:47:05;;;;;;;2.92;1.25;;;;;;;;;;5031873;28;20045;-70
2024/01/18 09:49:33;;;;;;;8.23;1.95;;;;;;;;;;5031786;28;20572;-70
2024/01/18 09:52:00;;;;;;;3.83;1.73;;;;;;;;;;5032567;28;20041;-71
2024/01/18 09:54:26;;;;;;;3.13;2.58;;;;;;;;;;5031643;28;20535;-70
2024/01/18 09:56:54;;;;;;;10.70;3.65;;;;;;;;;;5031704;28;20041;-70
2024/01/18 09:59:20;;;;;;;3.85;1.10;;;;;;;;;;5032162;28;20045;-71
2024/01/18 10:01:47;;;;;;;3.67;1.00;;;;;;;;;;5032394;28;20045;-70
2024/01/18 10:04:13;;;;;;;4.50;1.40;;;;;;;;;;5032096;28;20038;-70
2024/01/18 10:06:40;;;;;;;5.20;2.28;;;19.80;1.00;;;;;;5031618;28;20043;-72
2024/01/18 10:09:07;;;;;;;6.90;2.00;;;;;;;;;;5015729;28;20048;-70
2024/01/18 10:11:32;;;;;;;1.85;0.88;;;19.70;1.00;;;;;;5031933;28;20580;-70
2024/01/18 10:13:59;;;;;;;3.75;1.98;;;19.30;1.00;;;;;;5015741;28;20188;-69
2024/01/18 10:16:29;;;;;;;3.45;1.60;;;;;;;;;;5031322;28;20045;-70
2024/01/18 10:19:00;;;;;;;5.57;1.90;;;;;;;;;;5015756;28;20046;-71
2024/01/18 10:21:26;;;;;;;5.88;1.40;;;19.50;1.00;;;;;;5015634;28;20049;-71
2024/01/18 10:23:53;;;;;;;2.20;1.00;;;19.30;1.00;;;;;;5031956;28;20038;-71
2024/01/18 10:26:26;;;;;;;6.53;1.50;;;19.40;1.00;;;;;;5031490;28;20034;-70
2024/01/18 10:28:52;;;;;;;3.47;0.98;;;;;;;;;;5029902;28;20094;-71
2024/01/18 10:31:18;;;;;;;4.38;2.30;;;;;;;;;;5015411;28;20045;-71
2024/01/18 10:33:46;;;;;;;3.38;1.98;;;;;;;;;;5031638;28;20413;-71
2024/01/18 10:36:13;;;;;;;1.63;0.70;;;;;;;;;;5031114;28;20045;-71
2024/01/18 10:38:39;;;;;;;2.70;0.70;;;;;;;;;;5015044;28;20128;-71
2024/01/18 10:41:08;;;;;;;1.50;0.80;;;;;;;;;;5015035;28;20120;-71
2024/01/18 10:43:35;;;;;;;2.72;0.80;;;;;;;;;;5031164;28;20052;-67
2024/01/18 10:46:01;;;;;;;2.53;0.98;;;;;;;;;;5030843;28;20041;-70
2024/01/18 10:48:28;;;;;;;4.18;1.58;;;;;;;;;;5031248;28;20036;-70
2024/01/18 10:50:57;;;;;;;3.92;0.90;;;19.50;1.00;;;;;;5014835;28;20041;-71
2024/01/18 10:53:29;;;;;;;7.05;3.35;;;19.50;1.80;;;;;;5031144;28;20033;-70
2024/01/18 10:55:56;;;;;;;8.85;2.90;;;;;;;;;;5030714;28;20052;-70
2024/01/18 10:58:22;;;;;;;6.55;1.50;;;;;;;;;;5031076;28;20076;-70
2024/01/18 11:00:48;;;;;;;11.48;2.13;;;;;;;;;;5031376;28;20037;-71
2024/01/18 11:03:15;;;;;;;4.60;1.75;;;;;;;;;;5031005;28;20085;-70
2024/01/18 11:05:48;;;;;;;6.47;1.42;;;19.30;1.00;;;;;;5030640;28;20045;-70
2024/01/18 11:08:14;;;;;;;4.15;2.22;;;;;;;;;;5030913;28;20049;-70
2024/01/18 11:10:40;;;;;;;3.83;2.40;;;;;;;;;;5014323;28;20029;-70
2024/01/18 11:13:07;;;;;;;5.38;1.45;;;19.70;1.00;;;;;;5027851;28;20029;-68
2024/01/18 11:15:35;;;;;;;2.67;0.95;;;19.20;1.00;;;;;;5030271;28;20083;-69
2024/01/18 11:18:11;;;;;;;5.95;0.77;;;19.50;1.00;;;;;;5030746;28;20455;-70
2024/01/18 11:21:04;;;;;;;3.03;0.82;;;19.20;1.00;;;;;;5031494;28;20068;-69
2024/01/18 11:23:37;;;;;;;5.85;1.42;;;19.10;1.00;;;;;;5014871;28;20052;-71
2024/01/18 11:26:22;;;;;;;7.38;1.67;;;19.40;1.00;;;;;;5030598;28;20041;-71
2024/01/18 11:28:48;;;;;;;7.38;1.75;;;;;;;;;;5030668;28;20120;-70
2024/01/18 11:31:14;;;;;;;3.90;1.55;;;;;;;;;;5030161;28;20129;-69
2024/01/18 11:33:40;;;;;;;7.68;3.00;;;;;;;;;;5012443;28;20125;-71
2024/01/18 11:36:08;;;;;;;3.10;0.80;;;;;;;;;;5023186;28;20052;-70
2024/01/18 11:38:43;;;;;;;4.32;0.85;;;;;;;;;;5002774;28;20049;-69
2024/01/18 11:41:10;;;;;;;5.22;1.60;;;;;;;;;;5010032;28;20041;-71
2024/01/18 11:43:53;;;;;;;4.35;1.10;;;;;;;;;;5026481;28;20133;-70
2024/01/18 11:46:35;;;;;;;5.45;1.35;;;;;;;;;;5009631;28;20501;-70
2024/01/18 11:49:01;;;;;;;4.75;1.42;;;;;;;;;;5011571;28;20056;-72
2024/01/18 11:51:28;;;;;;;3.47;1.10;;;19.10;2.40;;;;;;5041594;28;20124;-70
2024/01/18 11:53:55;;;;;;;4.50;1.23;;;;;;;;;;5048298;28;20127;-70
2024/01/18 11:56:23;;;;;;;2.53;1.08;;;;;;;;;;5032884;28;20040;-71
2024/01/18 11:58:52;;;;;;;5.00;1.10;;;;;;;;;;5049947;28;20072;-71
2024/01/18 12:01:19;;;;;;;4.05;1.00;;;;;;;;;;5050753;28;20048;-70
2024/01/18 12:03:45;;;;;;;2.75;0.85;;;;;;;;;;5033832;28;20040;-70
2024/01/18 12:06:11;;;;;;;4.93;1.00;;;;;;;;;;5050110;28;20364;-70
2024/01/18 12:08:37;;;;;;;2.45;0.82;;;;;;;;;;5050322;28;20041;-71
2024/01/18 12:11:03;;;;;;;1.85;0.90;;;;;;;;;;5039198;28;20037;-72
2024/01/18 12:13:30;;;;;;;2.28;0.93;;;;;;;;;;5013040;28;20510;-71
2024/01/18 12:15:56;;;;;;;3.67;1.08;;;;;;;;;;5058908;23;20037;-72
2024/01/18 12:18:22;;;;;;;6.57;1.15;;;;;;;;;;5058685;28;20485;-74
2024/01/18 12:20:48;;;;;;;2.65;1.25;;;;;;;;;;5059431;28;20127;-72
2024/01/18 12:23:17;;;;;;;4.25;1.10;;;19.60;1.00;;;;;;5032111;28;20084;-73
2024/01/18 12:25:43;;;;;;;2.92;1.02;;;19.40;1.00;;;;;;5032540;28;20493;-73
2024/01/18 12:28:10;;;;;;;3.40;1.35;;;;;;;;;;5033331;28;20048;-73
2024/01/18 12:30:42;;;;;;;7.35;1.88;;;;;;;;;;5050003;28;20041;-73
2024/01/18 12:33:09;;;;;;;4.75;1.00;;;;;;;;;;5050156;28;20048;-75
2024/01/18 12:35:36;;;;;;;3.95;0.98;;;19.60;1.00;;;;;;5049204;28;20436;-75
2024/01/18 12:38:03;;;;;;;5.93;1.10;;;;;;;;;;5049835;28;20551;-75
2024/01/18 12:40:29;;;;;;;4.18;1.30;;;;;;;;;;5033666;28;20404;-74
2024/01/18 12:43:01;;;;;;;7.10;1.20;;;;;;;;;;5049907;28;20568;-74
2024/01/18 12:45:27;;;;;;;16.38;1.73;;;;;;;;;;5049317;28;20115;-74
2024/01/18 12:47:53;;;;;;;5.05;1.27;;;;;;;;;;5049892;28;20747;-73
2024/01/18 12:50:20;;;;;;;4.72;1.55;;;;;;;;;;5049859;28;20044;-73
2024/01/18 12:52:46;;;;;;;2.42;1.10;;;;;;;;;;5049887;28;20075;-75
2024/01/18 12:55:12;;;;;;;4.88;1.40;;;;;;;;;;5049109;28;20564;-75
2024/01/18 12:57:38;;;;;;;6.10;1.92;;;;;;;;;;5033097;28;20145;-74
2024/01/18 13:00:04;;;;;;;7.32;2.97;;;19.90;1.00;;;;;;5049822;28;20041;-74
2024/01/18 13:02:30;;;;;;;6.38;1.48;;;;;;;;;;5033236;28;20063;-74
2024/01/18 13:05:00;;;;;;;4.28;1.60;;;20.00;1.00;;;;;;5032797;28;20504;-74
2024/01/18 13:07:26;;;;;;;6.93;2.17;;;;;;;;;;5049674;28;20127;-74
2024/01/18 13:09:52;;;;;;;4.90;1.83;;;;;;;;;;5049939;28;20129;-74
2024/01/18 13:12:19;;;;;;;6.97;3.30;;;;;;;;;;5033393;28;20037;-74
2024/01/18 13:14:45;;;;;;;4.70;1.38;;;19.90;1.00;;;;;;5049870;28;20412;-74
2024/01/18 13:17:16;;;;;;;8.00;1.67;;;19.90;1.00;;;;;;5048498;28;20049;-74
2024/01/18 13:19:42;;;;;;;8.10;1.55;;;;;;;;;;5049723;28;20036;-74
2024/01/18 13:22:08;;;;;;;5.78;2.05;;;19.90;1.00;;;;;;5049565;28;20186;-74
2024/01/18 13:24:34;;;;;;;6.65;2.92;;;;;;;;;;5049437;28;20044;-74
2024/01/18 13:27:04;;;;;;;7.43;1.90;;;19.90;1.00;;;;;;5032169;28;20045;-75
2024/01/18 13:29:30;;;;;;;2.40;1.17;;;19.80;1.00;;;;;;5051875;28;20045;-74
2024/01/18 13:31:56;;;;;;;3.60;1.58;;;19.90;1.00;;;;;;5053138;28;20041;-74
2024/01/18 13:34:21;;;;;;;9.85;1.85;;;;;;;;;;5053225;28;20051;-74
2024/01/18 13:36:50;;;;;;;8.43;3.35;;;;;;;;;;5052440;28;20037;-74
2024/01/18 13:39:17;;;;;;;5.20;1.77;;;20.20;1.00;;;;;;5053093;28;20095;-74
2024/01/18 13:41:42;;;;;;;3.60;1.77;;;19.70;1.00;;;;;;5053154;28;20067;-74
2024/01/18 13:44:08;;;;;;;9.40;3.55;;;;;;;;;;5052799;28;20041;-74
2024/01/18 13:46:37;;;;;;;14.50;5.00;;;;;;;;;;5052623;28;20040;-74
2024/01/18 13:49:03;;;;;;;10.95;3.17;;;20.10;1.00;;;;;;5052770;28;20041;-74
2024/01/18 13:51:30;;;;;;;8.60;2.53;;;;;;;;;;5052855;28;20116;-74
2024/01/18 13:53:56;;;;;;;11.40;1.88;;;;;;;;;;5052777;28;20099;-74
2024/01/18 13:56:23;;;;;;;5.95;2.13;;;20.00;1.00;;;;;;5035446;28;20045;-74
2024/01/18 13:58:49;;;;;;;4.40;1.75;;;;;;;;;;5035777;28;20481;-74
2024/01/18 14:01:15;;;;;;;6.65;2.25;;;19.90;1.00;;;;;;5052641;28;20123;-74
2024/01/18 14:03:43;;;;;;;8.93;2.40;;;;;;;;;;5052762;28;20540;-74
2024/01/18 14:06:12;;;;;;;11.70;2.53;;;;;;;;;;5051999;28;20073;-74
2024/01/18 14:08:37;;;;;;;5.10;2.17;;;19.80;1.00;;;;;;5052601;28;20052;-74
2024/01/18 14:11:03;;;;;;;9.05;2.13;;;;;;;;;;5052507;28;20033;-75
2024/01/18 14:13:30;;;;;;;11.00;3.00;;;;;;;;;;5052203;28;20512;-74
2024/01/18 14:15:56;;;;;;;7.45;2.10;;;19.70;1.00;;;;;;5051628;28;20052;-74
2024/01/18 14:18:22;;;;;;;4.88;1.85;;;;;;;;;;5052246;28;20041;-74